Valor — WDG9853 — position and weather

sailwx.info

Track history (hours):
 
Tides and Currents Weather Stations Pressure Air Temp Water Temp Dewpoint Dewpoint Depression Visibility Wind Speed Wind Dir Waves Ship Positions

Valor

Owner: Enterprise Marine Services, LLC, San Antonio, TX. More information available from US FCC via Universal Licensing System and Coast Guard Vessel Documentation Center.

Last reported at 2018-Feb-21 03:10 UTC. Time now 2018-Feb-22 18:37 UTC.
Position N 29°44' W 095°08'.

Length 29 m; draft 3.2 m.

Type: Towing. MMSI: 367591810.

Date/timePositionNaut miles runAvg speedWind from/ knotsBaromVisibWave heightAir tempDewpointWater temp
2018-Feb-21 03:10N 29°44' W 095°08'0 0.0
2018-Feb-20 13:52N 29°44' W 095°08'0 0.0
2018-Feb-20 13:29N 29°44' W 095°08'4 0.8
2018-Feb-20 08:22N 29°47' W 095°05'4 9.8
2018-Feb-20 07:55N 29°44' W 095°08'0 0.0
2018-Feb-20 07:26N 29°44' W 095°08'0 0.0
2018-Feb-20 03:03N 29°44' W 095°08'0 1.6
2018-Feb-20 02:59N 29°44' W 095°08'3 0.4
2018-Feb-19 17:36N 29°46' W 095°05'1 4.0
2018-Feb-19 17:28N 29°46' W 095°05'1 1.5
2018-Feb-19 16:53N 29°45' W 095°06'0 0.0
2018-Feb-19 16:12N 29°45' W 095°06'0 0.0
2018-Feb-19 15:51N 29°45' W 095°06'0 0.0
2018-Feb-19 15:30N 29°45' W 095°06'0 0.0
2018-Feb-19 15:00N 29°45' W 095°06'0 0.0
2018-Feb-19 14:29N 29°45' W 095°06'0 0.0
2018-Feb-19 14:01N 29°45' W 095°06'0 0.0
2018-Feb-19 13:30N 29°45' W 095°06'0 0.0
2018-Feb-19 13:00N 29°45' W 095°06'0 0.0
2018-Feb-19 12:30N 29°45' W 095°06'0 0.0
2018-Feb-19 12:00N 29°45' W 095°06'0 0.0
2018-Feb-19 11:29N 29°45' W 095°06'0 0.0
2018-Feb-19 10:56N 29°45' W 095°06'0 0.0
2018-Feb-19 10:13N 29°45' W 095°06'0 0.0
2018-Feb-19 09:50N 29°45' W 095°06'0 0.0
2018-Feb-19 09:30N 29°45' W 095°06'0 0.0
2018-Feb-19 09:00N 29°45' W 095°06'0 0.0
2018-Feb-19 08:30N 29°45' W 095°06'0 0.0
2018-Feb-19 08:00N 29°45' W 095°06'0 0.0
2018-Feb-19 07:30N 29°45' W 095°06'0 0.0
2018-Feb-19 07:00N 29°45' W 095°06'0 0.0
2018-Feb-19 06:30N 29°45' W 095°06'0 0.0
2018-Feb-19 06:01N 29°45' W 095°06'0 0.0
2018-Feb-19 05:30N 29°45' W 095°06'0 0.0
2018-Feb-19 04:53N 29°45' W 095°06'0 0.0
2018-Feb-19 04:31N 29°45' W 095°06'0 0.0
2018-Feb-18 18:46N 29°45' W 095°06'1 3.0
2018-Feb-18 18:28N 29°46' W 095°05'1 2.2
2018-Feb-18 17:59N 29°47' W 095°05'0 0.0
2018-Feb-18 17:21N 29°47' W 095°05'0 0.6
2018-Feb-18 16:28N 29°47' W 095°05'0 0.4
2018-Feb-18 15:56N 29°47' W 095°05'0 0.0
2018-Feb-17 07:00N 29°47' W 095°05'0 0.0
2018-Feb-17 06:30N 29°47' W 095°05'0 0.0
2018-Feb-17 05:56N 29°47' W 095°05'0 0.0
2018-Feb-16 18:51N 29°47' W 095°05'0 0.3
2018-Feb-16 18:30N 29°47' W 095°05'0 0.1
2018-Feb-16 17:59N 29°47' W 095°05'0 0.1
2018-Feb-16 17:31N 29°47' W 095°05'0 0.0
2018-Feb-16 13:59N 29°47' W 095°05'0 0.0
2018-Feb-16 11:13N 29°47' W 095°05'0 0.0
2018-Feb-16 10:54N 29°47' W 095°05'0 0.0
2018-Feb-16 09:16N 29°47' W 095°05'0 0.0
2018-Feb-16 08:44N 29°47' W 095°05'0 0.0
2018-Feb-16 08:18N 29°47' W 095°05'0 0.0
2018-Feb-16 07:55N 29°47' W 095°05'0 0.0
2018-Feb-16 07:24N 29°47' W 095°05'0 0.0
2018-Feb-16 07:00N 29°47' W 095°05'0 0.0
2018-Feb-16 06:26N 29°47' W 095°05'0 0.0
2018-Feb-16 05:56N 29°47' W 095°05'0 0.0
2018-Feb-16 05:30N 29°47' W 095°05'0 0.0
2018-Feb-16 05:00N 29°47' W 095°05'0 0.0
2018-Feb-16 04:30N 29°47' W 095°05'0 0.1
2018-Feb-16 04:00N 29°47' W 095°05'0 0.1
2018-Feb-16 03:26N 29°47' W 095°05'0 0.0
2018-Feb-16 02:59N 29°47' W 095°05'0 0.0
2018-Feb-16 02:30N 29°47' W 095°05'0 0.0
2018-Feb-16 01:59N 29°47' W 095°05'0 0.0
2018-Feb-16 01:28N 29°47' W 095°05'0 0.0
2018-Feb-16 01:00N 29°47' W 095°05'0 0.0
2018-Feb-15 16:14N 29°47' W 095°05'0 0.0
2018-Feb-15 14:01N 29°47' W 095°05'0 0.0
2018-Feb-15 13:57N 29°47' W 095°05'0 0.0
2018-Feb-15 10:28N 29°47' W 095°05'0 0.0
2018-Feb-15 10:00N 29°47' W 095°05'0 0.0
2018-Feb-15 09:28N 29°47' W 095°05'0 0.0
2018-Feb-15 08:59N 29°47' W 095°05'0 0.0
2018-Feb-15 08:31N 29°47' W 095°05'0 0.0
2018-Feb-15 08:00N 29°47' W 095°05'0 0.0
2018-Feb-15 07:30N 29°47' W 095°05'0 0.0
2018-Feb-15 07:00N 29°47' W 095°05'0 0.0
2018-Feb-15 06:30N 29°47' W 095°05'0 0.0
2018-Feb-15 06:00N 29°47' W 095°05'0 0.0
2018-Feb-15 05:30N 29°47' W 095°05'0 0.0
2018-Feb-15 04:58N 29°47' W 095°05'0 0.0
2018-Feb-15 04:23N 29°47' W 095°05'0 0.0
2018-Feb-15 04:00N 29°47' W 095°05'0 0.0
2018-Feb-15 03:30N 29°47' W 095°05'0 0.0
2018-Feb-15 03:00N 29°47' W 095°05'0 0.0
2018-Feb-15 02:28N 29°47' W 095°05'0 0.0
2018-Feb-15 01:06N 29°47' W 095°05'0 0.0
2018-Feb-15 00:41N 29°47' W 095°05'0 0.0
2018-Feb-15 00:14N 29°47' W 095°05'0 0.0
2018-Feb-14 21:23N 29°47' W 095°05'0 0.0
2018-Feb-14 20:28N 29°47' W 095°05'0 0.0
2018-Feb-14 18:26N 29°47' W 095°05'0 0.1
2018-Feb-14 17:58N 29°47' W 095°05'0 0.0
2018-Feb-14 17:28N 29°47' W 095°05'0 0.0
2018-Feb-14 16:55N 29°47' W 095°05'0 0.0
2018-Feb-14 15:30N 29°47' W 095°05'0 0.0
2018-Feb-14 14:45N 29°47' W 095°05'0 0.0
2018-Feb-14 14:14N 29°47' W 095°05'0 0.0
2018-Feb-14 13:55N 29°47' W 095°05'0 0.0
2018-Feb-14 13:27N 29°47' W 095°05'  
2018-Feb-12 02:20N 29°47' W 095°05'  
Track history (hours):
 
Tides and Currents Weather Stations Pressure Air Temp Water Temp Dewpoint Dewpoint Depression Visibility Wind Speed Wind Dir Waves Ship Positions

Valor

Owner: Enterprise Marine Services, LLC, San Antonio, TX. More information available from US FCC via Universal Licensing System and Coast Guard Vessel Documentation Center.

Last reported at 2018-Feb-21 03:10 UTC. Time now 2018-Feb-22 18:37 UTC.
Position N 29°44' W 095°08'.

Length 29 m; draft 3.2 m.

Type: Towing. MMSI: 367591810.

Date/timePositionNaut miles runAvg speedWind from/ knotsBaromVisibWave heightAir tempDewpointWater temp
2018-Feb-21 03:10N 29°44' W 095°08'0 0.0
2018-Feb-20 13:52N 29°44' W 095°08'0 0.0
2018-Feb-20 13:29N 29°44' W 095°08'4 0.8
2018-Feb-20 08:22N 29°47' W 095°05'4 9.8
2018-Feb-20 07:55N 29°44' W 095°08'0 0.0
2018-Feb-20 07:26N 29°44' W 095°08'0 0.0
2018-Feb-20 03:03N 29°44' W 095°08'0 1.6
2018-Feb-20 02:59N 29°44' W 095°08'3 0.4
2018-Feb-19 17:36N 29°46' W 095°05'1 4.0
2018-Feb-19 17:28N 29°46' W 095°05'1 1.5
2018-Feb-19 16:53N 29°45' W 095°06'0 0.0
2018-Feb-19 16:12N 29°45' W 095°06'0 0.0
2018-Feb-19 15:51N 29°45' W 095°06'0 0.0
2018-Feb-19 15:30N 29°45' W 095°06'0 0.0
2018-Feb-19 15:00N 29°45' W 095°06'0 0.0
2018-Feb-19 14:29N 29°45' W 095°06'0 0.0
2018-Feb-19 14:01N 29°45' W 095°06'0 0.0
2018-Feb-19 13:30N 29°45' W 095°06'0 0.0
2018-Feb-19 13:00N 29°45' W 095°06'0 0.0
2018-Feb-19 12:30N 29°45' W 095°06'0 0.0
2018-Feb-19 12:00N 29°45' W 095°06'0 0.0
2018-Feb-19 11:29N 29°45' W 095°06'0 0.0
2018-Feb-19 10:56N 29°45' W 095°06'0 0.0
2018-Feb-19 10:13N 29°45' W 095°06'0 0.0
2018-Feb-19 09:50N 29°45' W 095°06'0 0.0
2018-Feb-19 09:30N 29°45' W 095°06'0 0.0
2018-Feb-19 09:00N 29°45' W 095°06'0 0.0
2018-Feb-19 08:30N 29°45' W 095°06'0 0.0
2018-Feb-19 08:00N 29°45' W 095°06'0 0.0
2018-Feb-19 07:30N 29°45' W 095°06'0 0.0
2018-Feb-19 07:00N 29°45' W 095°06'0 0.0
2018-Feb-19 06:30N 29°45' W 095°06'0 0.0
2018-Feb-19 06:01N 29°45' W 095°06'0 0.0
2018-Feb-19 05:30N 29°45' W 095°06'0 0.0
2018-Feb-19 04:53N 29°45' W 095°06'0 0.0
2018-Feb-19 04:31N 29°45' W 095°06'0 0.0
2018-Feb-18 18:46N 29°45' W 095°06'1 3.0
2018-Feb-18 18:28N 29°46' W 095°05'1 2.2
2018-Feb-18 17:59N 29°47' W 095°05'0 0.0
2018-Feb-18 17:21N 29°47' W 095°05'0 0.6
2018-Feb-18 16:28N 29°47' W 095°05'0 0.4
2018-Feb-18 15:56N 29°47' W 095°05'0 0.0
2018-Feb-17 07:00N 29°47' W 095°05'0 0.0
2018-Feb-17 06:30N 29°47' W 095°05'0 0.0
2018-Feb-17 05:56N 29°47' W 095°05'0 0.0
2018-Feb-16 18:51N 29°47' W 095°05'0 0.3
2018-Feb-16 18:30N 29°47' W 095°05'0 0.1
2018-Feb-16 17:59N 29°47' W 095°05'0 0.1
2018-Feb-16 17:31N 29°47' W 095°05'0 0.0
2018-Feb-16 13:59N 29°47' W 095°05'0 0.0
2018-Feb-16 11:13N 29°47' W 095°05'0 0.0
2018-Feb-16 10:54N 29°47' W 095°05'0 0.0
2018-Feb-16 09:16N 29°47' W 095°05'0 0.0
2018-Feb-16 08:44N 29°47' W 095°05'0 0.0
2018-Feb-16 08:18N 29°47' W 095°05'0 0.0
2018-Feb-16 07:55N 29°47' W 095°05'0 0.0
2018-Feb-16 07:24N 29°47' W 095°05'0 0.0
2018-Feb-16 07:00N 29°47' W 095°05'0 0.0
2018-Feb-16 06:26N 29°47' W 095°05'0 0.0
2018-Feb-16 05:56N 29°47' W 095°05'0 0.0
2018-Feb-16 05:30N 29°47' W 095°05'0 0.0
2018-Feb-16 05:00N 29°47' W 095°05'0 0.0
2018-Feb-16 04:30N 29°47' W 095°05'0 0.1
2018-Feb-16 04:00N 29°47' W 095°05'0 0.1
2018-Feb-16 03:26N 29°47' W 095°05'0 0.0
2018-Feb-16 02:59N 29°47' W 095°05'0 0.0
2018-Feb-16 02:30N 29°47' W 095°05'0 0.0
2018-Feb-16 01:59N 29°47' W 095°05'0 0.0
2018-Feb-16 01:28N 29°47' W 095°05'0 0.0
2018-Feb-16 01:00N 29°47' W 095°05'0 0.0
2018-Feb-15 16:14N 29°47' W 095°05'0 0.0
2018-Feb-15 14:01N 29°47' W 095°05'0 0.0
2018-Feb-15 13:57N 29°47' W 095°05'0 0.0
2018-Feb-15 10:28N 29°47' W 095°05'0 0.0
2018-Feb-15 10:00N 29°47' W 095°05'0 0.0
2018-Feb-15 09:28N 29°47' W 095°05'0 0.0
2018-Feb-15 08:59N 29°47' W 095°05'0 0.0
2018-Feb-15 08:31N 29°47' W 095°05'0 0.0
2018-Feb-15 08:00N 29°47' W 095°05'0 0.0
2018-Feb-15 07:30N 29°47' W 095°05'0 0.0
2018-Feb-15 07:00N 29°47' W 095°05'0 0.0
2018-Feb-15 06:30N 29°47' W 095°05'0 0.0
2018-Feb-15 06:00N 29°47' W 095°05'0 0.0
2018-Feb-15 05:30N 29°47' W 095°05'0 0.0
2018-Feb-15 04:58N 29°47' W 095°05'0 0.0
2018-Feb-15 04:23N 29°47' W 095°05'0 0.0
2018-Feb-15 04:00N 29°47' W 095°05'0 0.0
2018-Feb-15 03:30N 29°47' W 095°05'0 0.0
2018-Feb-15 03:00N 29°47' W 095°05'0 0.0
2018-Feb-15 02:28N 29°47' W 095°05'0 0.0
2018-Feb-15 01:06N 29°47' W 095°05'0 0.0
2018-Feb-15 00:41N 29°47' W 095°05'0 0.0
2018-Feb-15 00:14N 29°47' W 095°05'0 0.0
2018-Feb-14 21:23N 29°47' W 095°05'0 0.0
2018-Feb-14 20:28N 29°47' W 095°05'0 0.0
2018-Feb-14 18:26N 29°47' W 095°05'0 0.1
2018-Feb-14 17:58N 29°47' W 095°05'0 0.0
2018-Feb-14 17:28N 29°47' W 095°05'0 0.0
2018-Feb-14 16:55N 29°47' W 095°05'0 0.0
2018-Feb-14 15:30N 29°47' W 095°05'0 0.0
2018-Feb-14 14:45N 29°47' W 095°05'0 0.0
2018-Feb-14 14:14N 29°47' W 095°05'0 0.0
2018-Feb-14 13:55N 29°47' W 095°05'0 0.0
2018-Feb-14 13:27N 29°47' W 095°05'  
2018-Feb-12 02:20N 29°47' W 095°05'  

Dump ship's entire track history